sensor_id;sensor_type;location;lat;lon;timestamp;P1;durP1;ratioP1;P2;durP2;ratioP2
28766;SDS011;15921;52.034;20.650;2022-12-18T00:01:02;72.75;;;25.23;;
28766;SDS011;15921;52.034;20.650;2022-12-18T00:03:32;82.43;;;26.92;;
28766;SDS011;15921;52.034;20.650;2022-12-18T00:05:58;70.28;;;26.67;;
28766;SDS011;15921;52.034;20.650;2022-12-18T00:08:24;74.50;;;26.90;;
28766;SDS011;15921;52.034;20.650;2022-12-18T00:10:49;80.82;;;28.33;;
28766;SDS011;15921;52.034;20.650;2022-12-18T00:13:15;91.00;;;28.52;;
28766;SDS011;15921;52.034;20.650;2022-12-18T00:15:41;88.88;;;28.67;;
28766;SDS011;15921;52.034;20.650;2022-12-18T00:18:06;76.28;;;25.90;;
28766;SDS011;15921;52.034;20.650;2022-12-18T00:20:39;85.82;;;28.65;;
28766;SDS011;15921;52.034;20.650;2022-12-18T00:25:34;70.88;;;25.95;;
28766;SDS011;15921;52.034;20.650;2022-12-18T00:28:01;78.57;;;26.17;;
28766;SDS011;15921;52.034;20.650;2022-12-18T00:30:29;71.28;;;25.95;;
28766;SDS011;15921;52.034;20.650;2022-12-18T00:32:55;73.47;;;26.40;;
28766;SDS011;15921;52.034;20.650;2022-12-18T00:35:21;88.13;;;29.60;;
28766;SDS011;15921;52.034;20.650;2022-12-18T00:37:47;77.63;;;27.55;;
28766;SDS011;15921;52.034;20.650;2022-12-18T00:40:12;82.95;;;29.05;;
28766;SDS011;15921;52.034;20.650;2022-12-18T00:42:38;77.63;;;28.25;;
28766;SDS011;15921;52.034;20.650;2022-12-18T00:45:26;83.57;;;27.88;;
28766;SDS011;15921;52.034;20.650;2022-12-18T00:47:55;82.53;;;27.55;;
28766;SDS011;15921;52.034;20.650;2022-12-18T00:50:22;79.30;;;26.35;;
28766;SDS011;15921;52.034;20.650;2022-12-18T00:52:49;75.10;;;26.48;;
28766;SDS011;15921;52.034;20.650;2022-12-18T00:55:15;82.93;;;27.35;;
28766;SDS011;15921;52.034;20.650;2022-12-18T00:57:41;74.45;;;25.58;;
28766;SDS011;15921;52.034;20.650;2022-12-18T01:00:08;75.43;;;25.75;;
28766;SDS011;15921;52.034;20.650;2022-12-18T01:02:36;70.82;;;25.67;;
28766;SDS011;15921;52.034;20.650;2022-12-18T01:05:02;75.55;;;26.20;;
28766;SDS011;15921;52.034;20.650;2022-12-18T01:07:29;83.50;;;26.67;;
28766;SDS011;15921;52.034;20.650;2022-12-18T01:09:55;78.55;;;28.60;;
28766;SDS011;15921;52.034;20.650;2022-12-18T01:12:20;88.10;;;28.42;;
28766;SDS011;15921;52.034;20.650;2022-12-18T01:14:46;78.95;;;27.35;;
28766;SDS011;15921;52.034;20.650;2022-12-18T01:17:12;78.95;;;28.35;;
28766;SDS011;15921;52.034;20.650;2022-12-18T01:19:37;70.93;;;27.33;;
28766;SDS011;15921;52.034;20.650;2022-12-18T01:22:03;82.75;;;28.20;;
28766;SDS011;15921;52.034;20.650;2022-12-18T01:24:28;79.30;;;29.08;;
28766;SDS011;15921;52.034;20.650;2022-12-18T01:26:54;78.88;;;28.65;;
28766;SDS011;15921;52.034;20.650;2022-12-18T01:29:22;84.38;;;30.38;;
28766;SDS011;15921;52.034;20.650;2022-12-18T01:31:47;75.90;;;29.25;;
28766;SDS011;15921;52.034;20.650;2022-12-18T01:34:13;91.28;;;30.85;;
28766;SDS011;15921;52.034;20.650;2022-12-18T01:36:39;92.43;;;33.28;;
28766;SDS011;15921;52.034;20.650;2022-12-18T01:39:10;91.68;;;30.52;;
28766;SDS011;15921;52.034;20.650;2022-12-18T01:41:37;98.65;;;31.58;;
28766;SDS011;15921;52.034;20.650;2022-12-18T01:49:57;105.88;;;32.58;;
28766;SDS011;15921;52.034;20.650;2022-12-18T01:52:27;115.97;;;33.78;;
28766;SDS011;15921;52.034;20.650;2022-12-18T01:54:56;114.85;;;33.70;;
28766;SDS011;15921;52.034;20.650;2022-12-18T01:57:23;122.68;;;35.42;;
28766;SDS011;15921;52.034;20.650;2022-12-18T01:59:50;122.68;;;34.03;;
28766;SDS011;15921;52.034;20.650;2022-12-18T02:02:19;110.70;;;33.50;;
28766;SDS011;15921;52.034;20.650;2022-12-18T02:04:46;122.25;;;33.88;;
28766;SDS011;15921;52.034;20.650;2022-12-18T02:09:40;120.47;;;34.13;;
28766;SDS011;15921;52.034;20.650;2022-12-18T02:14:44;122.05;;;33.70;;
28766;SDS011;15921;52.034;20.650;2022-12-18T02:17:18;120.95;;;34.17;;
28766;SDS011;15921;52.034;20.650;2022-12-18T02:28:20;108.07;;;31.40;;
28766;SDS011;15921;52.034;20.650;2022-12-18T02:30:50;117.15;;;31.45;;
28766;SDS011;15921;52.034;20.650;2022-12-18T02:33:20;118.78;;;32.60;;
28766;SDS011;15921;52.034;20.650;2022-12-18T02:35:50;116.55;;;31.13;;
28766;SDS011;15921;52.034;20.650;2022-12-18T02:38:19;100.03;;;30.73;;
28766;SDS011;15921;52.034;20.650;2022-12-18T02:40:45;109.05;;;30.92;;
28766;SDS011;15921;52.034;20.650;2022-12-18T02:43:12;99.03;;;31.10;;
28766;SDS011;15921;52.034;20.650;2022-12-18T02:45:46;104.65;;;29.90;;
28766;SDS011;15921;52.034;20.650;2022-12-18T02:48:14;108.57;;;30.73;;
28766;SDS011;15921;52.034;20.650;2022-12-18T02:50:44;98.05;;;31.70;;
28766;SDS011;15921;52.034;20.650;2022-12-18T02:56:02;97.82;;;29.58;;
28766;SDS011;15921;52.034;20.650;2022-12-18T03:03:43;86.45;;;28.67;;
28766;SDS011;15921;52.034;20.650;2022-12-18T03:06:28;94.95;;;29.10;;
28766;SDS011;15921;52.034;20.650;2022-12-18T03:09:06;85.88;;;27.67;;
28766;SDS011;15921;52.034;20.650;2022-12-18T03:11:37;81.90;;;26.55;;
28766;SDS011;15921;52.034;20.650;2022-12-18T03:14:23;84.43;;;26.75;;
28766;SDS011;15921;52.034;20.650;2022-12-18T03:16:53;87.47;;;26.88;;
28766;SDS011;15921;52.034;20.650;2022-12-18T03:19:22;83.35;;;26.23;;
28766;SDS011;15921;52.034;20.650;2022-12-18T03:21:53;86.45;;;26.42;;
28766;SDS011;15921;52.034;20.650;2022-12-18T03:24:21;84.30;;;26.33;;
28766;SDS011;15921;52.034;20.650;2022-12-18T03:26:50;83.25;;;28.27;;
28766;SDS011;15921;52.034;20.650;2022-12-18T03:29:19;94.85;;;27.83;;
28766;SDS011;15921;52.034;20.650;2022-12-18T03:31:51;86.17;;;26.50;;
28766;SDS011;15921;52.034;20.650;2022-12-18T03:34:25;81.95;;;28.00;;
28766;SDS011;15921;52.034;20.650;2022-12-18T03:36:54;97.88;;;28.38;;
28766;SDS011;15921;52.034;20.650;2022-12-18T03:39:20;81.88;;;27.40;;
28766;SDS011;15921;52.034;20.650;2022-12-18T03:45:09;80.13;;;26.70;;
28766;SDS011;15921;52.034;20.650;2022-12-18T03:50:26;82.45;;;25.85;;
28766;SDS011;15921;52.034;20.650;2022-12-18T03:53:22;85.10;;;26.50;;
28766;SDS011;15921;52.034;20.650;2022-12-18T03:55:49;75.07;;;23.27;;
28766;SDS011;15921;52.034;20.650;2022-12-18T03:58:17;77.28;;;24.55;;
28766;SDS011;15921;52.034;20.650;2022-12-18T04:00:48;87.30;;;26.13;;
28766;SDS011;15921;52.034;20.650;2022-12-18T04:03:17;86.32;;;27.33;;
28766;SDS011;15921;52.034;20.650;2022-12-18T04:05:44;88.90;;;25.52;;
28766;SDS011;15921;52.034;20.650;2022-12-18T04:08:11;87.43;;;26.05;;
28766;SDS011;15921;52.034;20.650;2022-12-18T04:10:38;77.55;;;25.48;;
28766;SDS011;15921;52.034;20.650;2022-12-18T04:13:03;85.95;;;27.13;;
28766;SDS011;15921;52.034;20.650;2022-12-18T04:15:29;62.60;;;22.85;;
28766;SDS011;15921;52.034;20.650;2022-12-18T04:17:59;75.60;;;25.10;;
28766;SDS011;15921;52.034;20.650;2022-12-18T04:20:25;74.03;;;23.73;;
28766;SDS011;15921;52.034;20.650;2022-12-18T04:22:50;77.97;;;24.98;;
28766;SDS011;15921;52.034;20.650;2022-12-18T04:25:16;75.05;;;24.20;;
28766;SDS011;15921;52.034;20.650;2022-12-18T04:27:41;70.82;;;23.27;;
28766;SDS011;15921;52.034;20.650;2022-12-18T04:30:07;87.30;;;26.63;;
28766;SDS011;15921;52.034;20.650;2022-12-18T04:32:34;67.00;;;23.23;;
28766;SDS011;15921;52.034;20.650;2022-12-18T04:34:59;68.57;;;24.15;;
28766;SDS011;15921;52.034;20.650;2022-12-18T04:37:25;77.88;;;24.30;;
28766;SDS011;15921;52.034;20.650;2022-12-18T04:39:51;70.97;;;22.55;;
28766;SDS011;15921;52.034;20.650;2022-12-18T04:42:16;74.75;;;23.17;;
28766;SDS011;15921;52.034;20.650;2022-12-18T04:44:42;72.45;;;24.15;;
28766;SDS011;15921;52.034;20.650;2022-12-18T04:47:08;72.47;;;23.73;;
28766;SDS011;15921;52.034;20.650;2022-12-18T04:49:33;70.38;;;22.88;;
28766;SDS011;15921;52.034;20.650;2022-12-18T04:51:59;70.70;;;23.92;;
28766;SDS011;15921;52.034;20.650;2022-12-18T04:54:25;69.60;;;21.95;;
28766;SDS011;15921;52.034;20.650;2022-12-18T04:56:50;79.40;;;24.88;;
28766;SDS011;15921;52.034;20.650;2022-12-18T04:59:16;72.75;;;23.80;;
28766;SDS011;15921;52.034;20.650;2022-12-18T05:01:42;65.28;;;23.23;;
28766;SDS011;15921;52.034;20.650;2022-12-18T05:04:07;76.15;;;27.58;;
28766;SDS011;15921;52.034;20.650;2022-12-18T05:06:33;72.07;;;25.33;;
28766;SDS011;15921;52.034;20.650;2022-12-18T05:08:59;82.18;;;25.58;;
28766;SDS011;15921;52.034;20.650;2022-12-18T05:11:24;78.50;;;27.80;;
28766;SDS011;15921;52.034;20.650;2022-12-18T05:13:50;97.53;;;27.90;;
28766;SDS011;15921;52.034;20.650;2022-12-18T05:16:16;97.90;;;29.10;;
28766;SDS011;15921;52.034;20.650;2022-12-18T05:18:41;107.93;;;32.47;;
28766;SDS011;15921;52.034;20.650;2022-12-18T05:21:07;89.75;;;29.90;;
28766;SDS011;15921;52.034;20.650;2022-12-18T05:23:36;91.97;;;29.88;;
28766;SDS011;15921;52.034;20.650;2022-12-18T05:26:04;108.63;;;33.45;;
28766;SDS011;15921;52.034;20.650;2022-12-18T05:28:32;98.40;;;33.13;;
28766;SDS011;15921;52.034;20.650;2022-12-18T05:30:59;114.30;;;35.35;;
28766;SDS011;15921;52.034;20.650;2022-12-18T05:33:28;106.75;;;35.90;;
28766;SDS011;15921;52.034;20.650;2022-12-18T05:35:56;110.60;;;35.42;;
28766;SDS011;15921;52.034;20.650;2022-12-18T05:38:24;106.50;;;34.78;;
28766;SDS011;15921;52.034;20.650;2022-12-18T05:40:51;109.75;;;35.25;;
28766;SDS011;15921;52.034;20.650;2022-12-18T05:43:18;105.43;;;34.78;;
28766;SDS011;15921;52.034;20.650;2022-12-18T05:45:46;106.30;;;35.20;;
28766;SDS011;15921;52.034;20.650;2022-12-18T05:48:13;122.40;;;36.75;;
28766;SDS011;15921;52.034;20.650;2022-12-18T05:50:40;112.18;;;37.47;;
28766;SDS011;15921;52.034;20.650;2022-12-18T05:53:07;107.57;;;35.65;;
28766;SDS011;15921;52.034;20.650;2022-12-18T05:55:33;103.18;;;32.95;;
28766;SDS011;15921;52.034;20.650;2022-12-18T05:58:00;101.47;;;33.45;;
28766;SDS011;15921;52.034;20.650;2022-12-18T06:00:26;99.38;;;32.28;;
28766;SDS011;15921;52.034;20.650;2022-12-18T06:02:52;110.47;;;34.97;;
28766;SDS011;15921;52.034;20.650;2022-12-18T06:05:18;108.07;;;32.13;;
28766;SDS011;15921;52.034;20.650;2022-12-18T06:07:43;109.20;;;33.65;;
28766;SDS011;15921;52.034;20.650;2022-12-18T06:10:09;100.05;;;29.55;;
28766;SDS011;15921;52.034;20.650;2022-12-18T06:12:36;104.28;;;31.50;;
28766;SDS011;15921;52.034;20.650;2022-12-18T06:15:02;98.18;;;32.28;;
28766;SDS011;15921;52.034;20.650;2022-12-18T06:17:31;82.95;;;30.52;;
28766;SDS011;15921;52.034;20.650;2022-12-18T06:19:58;96.85;;;31.00;;
28766;SDS011;15921;52.034;20.650;2022-12-18T06:22:24;95.07;;;30.50;;
28766;SDS011;15921;52.034;20.650;2022-12-18T06:24:51;107.10;;;33.83;;
28766;SDS011;15921;52.034;20.650;2022-12-18T06:27:16;109.30;;;34.83;;
28766;SDS011;15921;52.034;20.650;2022-12-18T06:29:42;103.45;;;31.65;;
28766;SDS011;15921;52.034;20.650;2022-12-18T06:32:08;98.97;;;33.05;;
28766;SDS011;15921;52.034;20.650;2022-12-18T06:34:34;103.20;;;32.53;;
28766;SDS011;15921;52.034;20.650;2022-12-18T06:37:02;98.43;;;34.08;;
28766;SDS011;15921;52.034;20.650;2022-12-18T06:39:27;106.40;;;35.63;;
28766;SDS011;15921;52.034;20.650;2022-12-18T06:41:53;102.72;;;33.50;;
28766;SDS011;15921;52.034;20.650;2022-12-18T06:44:19;99.82;;;34.25;;
28766;SDS011;15921;52.034;20.650;2022-12-18T06:46:44;109.40;;;35.65;;
28766;SDS011;15921;52.034;20.650;2022-12-18T06:49:10;113.32;;;35.55;;
28766;SDS011;15921;52.034;20.650;2022-12-18T06:51:36;100.72;;;33.63;;
28766;SDS011;15921;52.034;20.650;2022-12-18T06:54:02;108.93;;;35.25;;
28766;SDS011;15921;52.034;20.650;2022-12-18T06:56:28;106.97;;;33.33;;
28766;SDS011;15921;52.034;20.650;2022-12-18T06:58:54;105.13;;;33.75;;
28766;SDS011;15921;52.034;20.650;2022-12-18T07:01:20;97.80;;;33.67;;
28766;SDS011;15921;52.034;20.650;2022-12-18T07:03:46;97.97;;;31.95;;
28766;SDS011;15921;52.034;20.650;2022-12-18T07:06:16;102.22;;;32.38;;
28766;SDS011;15921;52.034;20.650;2022-12-18T07:08:43;102.57;;;33.15;;
28766;SDS011;15921;52.034;20.650;2022-12-18T07:11:09;99.45;;;33.72;;
28766;SDS011;15921;52.034;20.650;2022-12-18T07:13:35;95.82;;;31.65;;
28766;SDS011;15921;52.034;20.650;2022-12-18T07:16:07;112.55;;;34.58;;
28766;SDS011;15921;52.034;20.650;2022-12-18T07:18:34;100.15;;;31.88;;
28766;SDS011;15921;52.034;20.650;2022-12-18T07:21:07;99.57;;;33.28;;
28766;SDS011;15921;52.034;20.650;2022-12-18T07:23:35;102.97;;;32.20;;
28766;SDS011;15921;52.034;20.650;2022-12-18T07:26:02;103.95;;;32.53;;
28766;SDS011;15921;52.034;20.650;2022-12-18T07:28:29;99.10;;;31.13;;
28766;SDS011;15921;52.034;20.650;2022-12-18T07:30:55;101.03;;;32.10;;
28766;SDS011;15921;52.034;20.650;2022-12-18T07:33:21;98.15;;;31.40;;
28766;SDS011;15921;52.034;20.650;2022-12-18T07:35:46;105.85;;;31.63;;
28766;SDS011;15921;52.034;20.650;2022-12-18T07:38:12;95.13;;;31.02;;
28766;SDS011;15921;52.034;20.650;2022-12-18T07:40:38;101.05;;;32.80;;
28766;SDS011;15921;52.034;20.650;2022-12-18T07:43:03;98.13;;;33.60;;
28766;SDS011;15921;52.034;20.650;2022-12-18T07:45:32;89.53;;;31.63;;
28766;SDS011;15921;52.034;20.650;2022-12-18T07:47:58;97.63;;;30.15;;
28766;SDS011;15921;52.034;20.650;2022-12-18T07:50:24;102.35;;;31.10;;
28766;SDS011;15921;52.034;20.650;2022-12-18T07:52:49;88.88;;;29.15;;
28766;SDS011;15921;52.034;20.650;2022-12-18T07:55:15;97.15;;;32.10;;
28766;SDS011;15921;52.034;20.650;2022-12-18T07:57:41;97.10;;;31.38;;
28766;SDS011;15921;52.034;20.650;2022-12-18T08:00:06;102.25;;;32.92;;
28766;SDS011;15921;52.034;20.650;2022-12-18T08:02:33;109.30;;;32.88;;
28766;SDS011;15921;52.034;20.650;2022-12-18T08:04:58;103.13;;;31.25;;
28766;SDS011;15921;52.034;20.650;2022-12-18T08:07:24;102.25;;;33.13;;
28766;SDS011;15921;52.034;20.650;2022-12-18T08:09:50;104.15;;;33.22;;
28766;SDS011;15921;52.034;20.650;2022-12-18T08:12:15;107.95;;;34.15;;
28766;SDS011;15921;52.034;20.650;2022-12-18T08:14:41;100.38;;;33.50;;
28766;SDS011;15921;52.034;20.650;2022-12-18T08:17:06;104.22;;;33.45;;
28766;SDS011;15921;52.034;20.650;2022-12-18T08:19:32;105.80;;;34.72;;
28766;SDS011;15921;52.034;20.650;2022-12-18T08:21:58;105.55;;;32.97;;
28766;SDS011;15921;52.034;20.650;2022-12-18T08:24:23;98.15;;;31.90;;
28766;SDS011;15921;52.034;20.650;2022-12-18T08:26:49;99.55;;;32.88;;
28766;SDS011;15921;52.034;20.650;2022-12-18T08:29:15;102.10;;;32.85;;
28766;SDS011;15921;52.034;20.650;2022-12-18T08:31:41;100.28;;;33.83;;
28766;SDS011;15921;52.034;20.650;2022-12-18T08:34:07;95.63;;;32.38;;
28766;SDS011;15921;52.034;20.650;2022-12-18T08:36:33;103.78;;;33.60;;
28766;SDS011;15921;52.034;20.650;2022-12-18T08:38:58;98.95;;;31.48;;
28766;SDS011;15921;52.034;20.650;2022-12-18T08:41:24;97.65;;;32.30;;
28766;SDS011;15921;52.034;20.650;2022-12-18T08:43:50;98.30;;;32.75;;
28766;SDS011;15921;52.034;20.650;2022-12-18T08:46:36;101.60;;;35.15;;
28766;SDS011;15921;52.034;20.650;2022-12-18T08:49:03;97.80;;;32.58;;
28766;SDS011;15921;52.034;20.650;2022-12-18T08:51:30;109.32;;;32.80;;
28766;SDS011;15921;52.034;20.650;2022-12-18T08:53:55;86.07;;;30.58;;
28766;SDS011;15921;52.034;20.650;2022-12-18T08:56:21;90.72;;;30.63;;
28766;SDS011;15921;52.034;20.650;2022-12-18T08:58:47;86.53;;;30.40;;
28766;SDS011;15921;52.034;20.650;2022-12-18T09:01:13;98.22;;;31.50;;
28766;SDS011;15921;52.034;20.650;2022-12-18T09:03:38;90.18;;;32.65;;
28766;SDS011;15921;52.034;20.650;2022-12-18T09:06:05;85.60;;;30.83;;
28766;SDS011;15921;52.034;20.650;2022-12-18T09:08:33;95.53;;;31.80;;
28766;SDS011;15921;52.034;20.650;2022-12-18T09:10:59;91.90;;;31.08;;
28766;SDS011;15921;52.034;20.650;2022-12-18T09:13:25;87.78;;;28.92;;
28766;SDS011;15921;52.034;20.650;2022-12-18T09:15:51;88.88;;;29.25;;
28766;SDS011;15921;52.034;20.650;2022-12-18T09:18:18;90.10;;;28.77;;
28766;SDS011;15921;52.034;20.650;2022-12-18T09:20:46;82.93;;;27.70;;
28766;SDS011;15921;52.034;20.650;2022-12-18T09:23:12;84.80;;;30.25;;
28766;SDS011;15921;52.034;20.650;2022-12-18T09:25:38;84.97;;;30.58;;
28766;SDS011;15921;52.034;20.650;2022-12-18T09:28:05;85.38;;;29.15;;
28766;SDS011;15921;52.034;20.650;2022-12-18T09:30:39;89.90;;;30.88;;
28766;SDS011;15921;52.034;20.650;2022-12-18T09:33:07;95.35;;;31.80;;
28766;SDS011;15921;52.034;20.650;2022-12-18T09:35:35;86.88;;;29.30;;
28766;SDS011;15921;52.034;20.650;2022-12-18T09:38:04;89.38;;;29.30;;
28766;SDS011;15921;52.034;20.650;2022-12-18T09:40:40;92.80;;;32.38;;
28766;SDS011;15921;52.034;20.650;2022-12-18T09:43:26;92.97;;;30.73;;
28766;SDS011;15921;52.034;20.650;2022-12-18T09:46:08;88.50;;;30.73;;
28766;SDS011;15921;52.034;20.650;2022-12-18T09:48:41;82.38;;;29.65;;
28766;SDS011;15921;52.034;20.650;2022-12-18T09:51:22;88.60;;;29.73;;
28766;SDS011;15921;52.034;20.650;2022-12-18T09:54:10;80.57;;;28.35;;
28766;SDS011;15921;52.034;20.650;2022-12-18T09:56:40;79.28;;;28.83;;
28766;SDS011;15921;52.034;20.650;2022-12-18T09:59:14;88.90;;;29.35;;
28766;SDS011;15921;52.034;20.650;2022-12-18T10:01:55;76.43;;;27.58;;
28766;SDS011;15921;52.034;20.650;2022-12-18T10:04:21;93.00;;;30.73;;
28766;SDS011;15921;52.034;20.650;2022-12-18T10:06:54;88.05;;;30.75;;
28766;SDS011;15921;52.034;20.650;2022-12-18T10:09:59;82.93;;;30.27;;
28766;SDS011;15921;52.034;20.650;2022-12-18T10:15:32;81.03;;;27.67;;
28766;SDS011;15921;52.034;20.650;2022-12-18T10:18:36;80.40;;;27.08;;
28766;SDS011;15921;52.034;20.650;2022-12-18T10:21:21;67.78;;;25.85;;
28766;SDS011;15921;52.034;20.650;2022-12-18T10:26:41;79.07;;;28.00;;
28766;SDS011;15921;52.034;20.650;2022-12-18T10:29:09;78.32;;;27.98;;
28766;SDS011;15921;52.034;20.650;2022-12-18T10:31:38;78.80;;;26.60;;
28766;SDS011;15921;52.034;20.650;2022-12-18T10:34:03;72.85;;;27.92;;
28766;SDS011;15921;52.034;20.650;2022-12-18T10:36:29;77.93;;;26.00;;
28766;SDS011;15921;52.034;20.650;2022-12-18T10:39:03;78.93;;;27.25;;
28766;SDS011;15921;52.034;20.650;2022-12-18T10:41:42;82.97;;;27.98;;
28766;SDS011;15921;52.034;20.650;2022-12-18T10:44:20;86.25;;;28.35;;
28766;SDS011;15921;52.034;20.650;2022-12-18T10:46:53;69.10;;;25.17;;
28766;SDS011;15921;52.034;20.650;2022-12-18T10:49:24;77.05;;;28.90;;
28766;SDS011;15921;52.034;20.650;2022-12-18T10:52:04;86.35;;;29.30;;
28766;SDS011;15921;52.034;20.650;2022-12-18T10:54:32;77.10;;;28.30;;
28766;SDS011;15921;52.034;20.650;2022-12-18T10:57:42;78.45;;;27.02;;
28766;SDS011;15921;52.034;20.650;2022-12-18T10:59:52;84.80;;;29.20;;
28766;SDS011;15921;52.034;20.650;2022-12-18T11:02:36;78.35;;;27.70;;
28766;SDS011;15921;52.034;20.650;2022-12-18T11:05:22;80.68;;;27.67;;
28766;SDS011;15921;52.034;20.650;2022-12-18T11:07:48;74.50;;;28.50;;
28766;SDS011;15921;52.034;20.650;2022-12-18T11:10:18;85.20;;;28.67;;
28766;SDS011;15921;52.034;20.650;2022-12-18T11:12:46;75.50;;;27.08;;
28766;SDS011;15921;52.034;20.650;2022-12-18T11:15:46;75.55;;;27.65;;
28766;SDS011;15921;52.034;20.650;2022-12-18T11:18:13;73.25;;;26.05;;
28766;SDS011;15921;52.034;20.650;2022-12-18T11:20:57;80.87;;;28.40;;
28766;SDS011;15921;52.034;20.650;2022-12-18T11:23:37;71.25;;;27.00;;
28766;SDS011;15921;52.034;20.650;2022-12-18T11:26:15;73.68;;;27.23;;
28766;SDS011;15921;52.034;20.650;2022-12-18T11:28:51;83.00;;;28.73;;
28766;SDS011;15921;52.034;20.650;2022-12-18T11:31:32;75.00;;;25.88;;
28766;SDS011;15921;52.034;20.650;2022-12-18T11:36:43;72.03;;;25.95;;
28766;SDS011;15921;52.034;20.650;2022-12-18T11:42:03;73.50;;;27.30;;
28766;SDS011;15921;52.034;20.650;2022-12-18T11:44:47;77.05;;;26.25;;
28766;SDS011;15921;52.034;20.650;2022-12-18T11:49:45;71.00;;;25.40;;
28766;SDS011;15921;52.034;20.650;2022-12-18T11:54:46;69.97;;;24.15;;
28766;SDS011;15921;52.034;20.650;2022-12-18T12:00:15;67.43;;;25.10;;
28766;SDS011;15921;52.034;20.650;2022-12-18T12:37:39;72.93;;;27.40;;
28766;SDS011;15921;52.034;20.650;2022-12-18T12:40:11;81.97;;;28.35;;
28766;SDS011;15921;52.034;20.650;2022-12-18T12:43:00;82.75;;;29.98;;
28766;SDS011;15921;52.034;20.650;2022-12-18T12:45:48;78.35;;;28.63;;
28766;SDS011;15921;52.034;20.650;2022-12-18T12:48:46;81.32;;;28.70;;
28766;SDS011;15921;52.034;20.650;2022-12-18T12:51:13;78.95;;;28.98;;
28766;SDS011;15921;52.034;20.650;2022-12-18T12:53:46;78.25;;;26.92;;
28766;SDS011;15921;52.034;20.650;2022-12-18T12:56:13;80.68;;;30.27;;
28766;SDS011;15921;52.034;20.650;2022-12-18T12:58:45;86.93;;;30.10;;
28766;SDS011;15921;52.034;20.650;2022-12-18T13:04:49;75.00;;;26.92;;
28766;SDS011;15921;52.034;20.650;2022-12-18T13:07:27;81.80;;;28.20;;
28766;SDS011;15921;52.034;20.650;2022-12-18T13:18:30;106.40;;;35.83;;
28766;SDS011;15921;52.034;20.650;2022-12-18T13:25:47;96.72;;;34.17;;
28766;SDS011;15921;52.034;20.650;2022-12-18T13:30:58;85.60;;;27.63;;
28766;SDS011;15921;52.034;20.650;2022-12-18T13:36:53;88.15;;;31.67;;
28766;SDS011;15921;52.034;20.650;2022-12-18T13:38:47;102.03;;;35.78;;
28766;SDS011;15921;52.034;20.650;2022-12-18T13:41:32;96.07;;;33.47;;
28766;SDS011;15921;52.034;20.650;2022-12-18T13:49:52;100.05;;;33.60;;
28766;SDS011;15921;52.034;20.650;2022-12-18T13:52:20;100.45;;;35.03;;
28766;SDS011;15921;52.034;20.650;2022-12-18T13:54:53;116.03;;;35.42;;
28766;SDS011;15921;52.034;20.650;2022-12-18T13:57:30;105.88;;;36.00;;
28766;SDS011;15921;52.034;20.650;2022-12-18T14:02:46;84.90;;;30.58;;
28766;SDS011;15921;52.034;20.650;2022-12-18T14:05:22;89.55;;;30.02;;
28766;SDS011;15921;52.034;20.650;2022-12-18T14:08:00;88.43;;;29.30;;
28766;SDS011;15921;52.034;20.650;2022-12-18T14:10:35;100.72;;;35.85;;
28766;SDS011;15921;52.034;20.650;2022-12-18T14:13:05;97.53;;;33.33;;
28766;SDS011;15921;52.034;20.650;2022-12-18T14:15:34;95.05;;;32.17;;
28766;SDS011;15921;52.034;20.650;2022-12-18T14:18:20;98.55;;;33.40;;
28766;SDS011;15921;52.034;20.650;2022-12-18T14:21:29;106.25;;;34.88;;
28766;SDS011;15921;52.034;20.650;2022-12-18T14:24:12;95.25;;;32.50;;
28766;SDS011;15921;52.034;20.650;2022-12-18T14:26:42;94.47;;;31.73;;
28766;SDS011;15921;52.034;20.650;2022-12-18T14:29:22;100.90;;;36.30;;
28766;SDS011;15921;52.034;20.650;2022-12-18T14:32:09;93.80;;;33.20;;
28766;SDS011;15921;52.034;20.650;2022-12-18T14:34:37;126.05;;;35.55;;
28766;SDS011;15921;52.034;20.650;2022-12-18T14:37:03;104.35;;;33.53;;
28766;SDS011;15921;52.034;20.650;2022-12-18T14:39:29;98.72;;;32.75;;
28766;SDS011;15921;52.034;20.650;2022-12-18T14:41:55;91.78;;;31.27;;
28766;SDS011;15921;52.034;20.650;2022-12-18T14:44:20;104.10;;;35.00;;
28766;SDS011;15921;52.034;20.650;2022-12-18T14:46:46;108.82;;;34.90;;
28766;SDS011;15921;52.034;20.650;2022-12-18T14:51:55;92.05;;;29.42;;
28766;SDS011;15921;52.034;20.650;2022-12-18T14:54:24;92.03;;;30.13;;
28766;SDS011;15921;52.034;20.650;2022-12-18T14:57:36;91.93;;;29.80;;
28766;SDS011;15921;52.034;20.650;2022-12-18T14:59:46;94.65;;;29.23;;
28766;SDS011;15921;52.034;20.650;2022-12-18T15:02:18;93.90;;;30.10;;
28766;SDS011;15921;52.034;20.650;2022-12-18T15:12:45;105.78;;;34.40;;
28766;SDS011;15921;52.034;20.650;2022-12-18T15:18:05;93.47;;;33.33;;
28766;SDS011;15921;52.034;20.650;2022-12-18T15:20:55;95.43;;;33.58;;
28766;SDS011;15921;52.034;20.650;2022-12-18T15:26:00;97.28;;;33.10;;
28766;SDS011;15921;52.034;20.650;2022-12-18T15:33:42;95.60;;;31.67;;
28766;SDS011;15921;52.034;20.650;2022-12-18T15:36:12;96.70;;;31.55;;
28766;SDS011;15921;52.034;20.650;2022-12-18T15:38:40;98.57;;;32.83;;
28766;SDS011;15921;52.034;20.650;2022-12-18T15:41:11;94.85;;;30.95;;
28766;SDS011;15921;52.034;20.650;2022-12-18T15:43:39;101.60;;;33.40;;
28766;SDS011;15921;52.034;20.650;2022-12-18T15:46:06;111.30;;;32.55;;
28766;SDS011;15921;52.034;20.650;2022-12-18T15:48:39;101.35;;;32.00;;
28766;SDS011;15921;52.034;20.650;2022-12-18T15:51:18;113.25;;;37.95;;
28766;SDS011;15921;52.034;20.650;2022-12-18T15:53:54;102.50;;;33.72;;
28766;SDS011;15921;52.034;20.650;2022-12-18T15:56:22;99.93;;;35.35;;
28766;SDS011;15921;52.034;20.650;2022-12-18T15:59:10;118.60;;;35.25;;
28766;SDS011;15921;52.034;20.650;2022-12-18T16:01:37;105.07;;;34.50;;
28766;SDS011;15921;52.034;20.650;2022-12-18T16:04:04;142.85;;;45.15;;
28766;SDS011;15921;52.034;20.650;2022-12-18T16:06:30;105.95;;;34.90;;
28766;SDS011;15921;52.034;20.650;2022-12-18T16:08:56;97.50;;;29.65;;
28766;SDS011;15921;52.034;20.650;2022-12-18T16:11:23;91.65;;;30.13;;
28766;SDS011;15921;52.034;20.650;2022-12-18T16:14:22;91.57;;;30.17;;
28766;SDS011;15921;52.034;20.650;2022-12-18T16:16:56;84.18;;;27.73;;
28766;SDS011;15921;52.034;20.650;2022-12-18T16:19:24;105.85;;;32.35;;
28766;SDS011;15921;52.034;20.650;2022-12-18T16:21:51;182.32;;;56.45;;
28766;SDS011;15921;52.034;20.650;2022-12-18T16:24:18;275.67;;;77.80;;
28766;SDS011;15921;52.034;20.650;2022-12-18T16:26:49;102.93;;;33.78;;
28766;SDS011;15921;52.034;20.650;2022-12-18T16:29:16;89.57;;;28.20;;
28766;SDS011;15921;52.034;20.650;2022-12-18T16:31:43;96.13;;;28.83;;
28766;SDS011;15921;52.034;20.650;2022-12-18T16:36:40;93.35;;;29.88;;
28766;SDS011;15921;52.034;20.650;2022-12-18T16:39:06;98.25;;;33.10;;
28766;SDS011;15921;52.034;20.650;2022-12-18T16:41:32;99.20;;;32.63;;
28766;SDS011;15921;52.034;20.650;2022-12-18T16:43:58;101.40;;;32.50;;
28766;SDS011;15921;52.034;20.650;2022-12-18T16:46:24;105.35;;;33.20;;